KAKR

Akron Fulton International Airport

Akron, Ohio, USA
METAR KAKR 092054Z AUTO 00000KT 10SM CLR 03/M09 A3023 RMK AO2 SLP248 T00281089 56013 $
Observed Flight Rules
Dec-9 @ 20:54 UTC (45 minutes ago) Visual Flight Rules
Visibility Clouds
10 miles
  • Clear skies
Temperatures Readings
Current 3°C / 37°F
Dewpoint -9°C / 16°F
Humidity 41%
Altimeter 30.23" Hg
Pressure 1024.8 hPa
Elevation 363
METAR KAKR 092054Z AUTO 00000KT 10SM CLR 03/M09 A3023 RMK AO2 SLP248 T00281089 56013 $
Observed Flight Rules
Dec-9 @ 20:54 UTC
(45 minutes ago)
VFR
Clouds
  • Clear skies
Temperature Dewpoint
3°C / 37°F -9°C / 16°F
Humidity Altimeter Pressure
41% 30.23" Hg 1024.8 hPa